Climatologie pour Saint-Brevin les Pins
Jour • Résumé pour mars 21, 2017 Système :  Métrique    Anglais   Mixte
« - 1 jour
+ 1 jour »
Jour Semaine Mois Année Personnalisé
  Maximum : Minimum : Moyenne :
Température sous abri : 12.9 °C 7.8 °C 9.9 °C
Point de rosée : 10.4 °C 3.6 °C 6.4 °C
Humidité : 97 % 57 % 80 %
Vitesse du vent : 24.1 km/h 0.0 km/h 6.8 km/h
Rafale : 27.4 km/h - -
Direction :- - West
Pression : 1016.5 hPa 1011.7 hPa -
Précipitations : 0.3 mm    
Historical Graphs
 
 
Tableau de données pour mars 21, 2017
Heure Tempé Pt rosée Pression Vent Vitesse Rafale Humidité Taux pluie (/hr) Soleil
00:00 10.8 °C 10.4 °C 1013.1 hPa West 8.0 km/h 17.7 km/h 97 % 0.0 mm 0 W/m2
00:10 10.7 °C 10.3 °C 1013.1 hPa WNW 4.8 km/h 14.5 km/h 97 % 0.0 mm 0 W/m2
00:25 10.4 °C 10.0 °C 1013.1 hPa WNW 3.2 km/h 12.9 km/h 97 % 0.0 mm 0 W/m2
00:30 10.4 °C 9.9 °C 1013.1 hPa West 3.2 km/h 11.3 km/h 97 % 0.0 mm 0 W/m2
00:35 10.3 °C 9.9 °C 1013.1 hPa WNW 4.8 km/h 11.3 km/h 97 % 0.0 mm 0 W/m2
00:40 10.3 °C 9.9 °C 1013.1 hPa NNW 3.2 km/h 9.7 km/h 97 % 0.0 mm 0 W/m2
00:45 10.3 °C 9.8 °C 1013.1 hPa NW 4.8 km/h 8.0 km/h 97 % 0.0 mm 0 W/m2
00:50 10.4 °C 9.9 °C 1013.1 hPa West 3.2 km/h 9.7 km/h 97 % 0.0 mm 0 W/m2
00:55 10.4 °C 10.0 °C 1013.1 hPa WNW 4.8 km/h 11.3 km/h 97 % 0.0 mm 0 W/m2
01:00 10.4 °C 10.0 °C 1013.1 hPa WNW 3.2 km/h 12.9 km/h 97 % 0.0 mm 0 W/m2
01:05 10.4 °C 9.9 °C 1013.4 hPa WNW 6.4 km/h 12.9 km/h 97 % 0.0 mm 0 W/m2
01:10 10.4 °C 9.9 °C 1013.1 hPa West 8.0 km/h 12.9 km/h 97 % 0.0 mm 0 W/m2
01:15 10.3 °C 9.9 °C 1013.1 hPa NW 6.4 km/h 12.9 km/h 97 % 0.0 mm 0 W/m2
01:20 10.3 °C 9.9 °C 1013.4 hPa West 4.8 km/h 14.5 km/h 97 % 0.0 mm 0 W/m2
01:25 10.4 °C 9.9 °C 1013.1 hPa WNW 6.4 km/h 14.5 km/h 97 % 0.0 mm 0 W/m2
01:30 10.3 °C 9.9 °C 1013.1 hPa West 6.4 km/h 12.9 km/h 97 % 0.0 mm 0 W/m2
01:40 10.2 °C 9.7 °C 1013.1 hPa NW 3.2 km/h 8.0 km/h 97 % 0.0 mm 0 W/m2
01:45 10.2 °C 9.8 °C 1013.1 hPa WNW 6.4 km/h 11.3 km/h 97 % 0.0 mm 0 W/m2
01:50 10.1 °C 9.7 °C 1013.1 hPa West 6.4 km/h 11.3 km/h 97 % 0.0 mm 0 W/m2
01:55 10.0 °C 9.5 °C 1013.1 hPa NW 9.7 km/h 11.3 km/h 97 % 0.0 mm 0 W/m2
02:00 10.0 °C 9.5 °C 1013.1 hPa NW 3.2 km/h 11.3 km/h 97 % 0.0 mm 0 W/m2
02:05 10.0 °C 9.5 °C 1013.1 hPa NW 4.8 km/h 9.7 km/h 97 % 0.0 mm 0 W/m2
02:10 10.1 °C 9.6 °C 1013.1 hPa WNW 3.2 km/h 9.7 km/h 97 % 0.0 mm 0 W/m2
02:15 10.1 °C 9.6 °C 1013.1 hPa Calm   11.3 km/h 97 % 0.0 mm 0 W/m2
02:20 10.2 °C 9.7 °C 1013.1 hPa WNW 3.2 km/h 11.3 km/h 97 % 0.0 mm 0 W/m2
02:25 10.2 °C 9.8 °C 1013.1 hPa WNW 3.2 km/h 11.3 km/h 97 % 0.0 mm 0 W/m2
02:30 10.2 °C 9.8 °C 1013.1 hPa WNW 4.8 km/h 11.3 km/h 97 % 0.0 mm 0 W/m2
02:35 10.2 °C 9.7 °C 1013.1 hPa WNW 1.6 km/h 8.0 km/h 97 % 0.0 mm 0 W/m2
02:40 10.2 °C 9.8 °C 1013.1 hPa WNW 3.2 km/h 9.7 km/h 97 % 0.0 mm 0 W/m2
02:50 10.2 °C 9.8 °C 1013.1 hPa WNW 3.2 km/h 9.7 km/h 97 % 0.0 mm 0 W/m2
02:55 10.2 °C 9.7 °C 1013.1 hPa Calm   9.7 km/h 97 % 0.0 mm 0 W/m2
03:00 10.1 °C 9.7 °C 1013.1 hPa West 3.2 km/h 9.7 km/h 97 % 0.0 mm 0 W/m2
03:10 9.9 °C 9.5 °C 1013.1 hPa WNW 6.4 km/h 9.7 km/h 97 % 0.0 mm 0 W/m2
03:15 9.9 °C 9.5 °C 1013.1 hPa WNW 1.6 km/h 9.7 km/h 97 % 0.0 mm 0 W/m2
03:25 10.0 °C 9.5 °C 1013.4 hPa West 3.2 km/h 9.7 km/h 97 % 0.0 mm 0 W/m2
03:30 10.0 °C 9.5 °C 1013.1 hPa WNW 3.2 km/h 9.7 km/h 97 % 0.0 mm 0 W/m2
03:35 10.1 °C 9.6 °C 1013.1 hPa WNW 6.4 km/h 9.7 km/h 97 % 0.3 mm 0 W/m2
03:40 10.1 °C 9.7 °C 1013.1 hPa WNW 6.4 km/h 12.9 km/h 97 % 0.3 mm 0 W/m2
03:45 10.2 °C 9.7 °C 1013.1 hPa WNW 3.2 km/h 16.1 km/h 97 % 0.3 mm 0 W/m2
03:50 10.2 °C 9.7 °C 1013.1 hPa WNW 9.7 km/h 17.7 km/h 97 % 0.3 mm 0 W/m2
03:55 10.2 °C 9.6 °C 1013.1 hPa WNW 8.0 km/h 17.7 km/h 96 % 0.3 mm 0 W/m2
04:00 10.1 °C 9.5 °C 1013.1 hPa WNW 6.4 km/h 12.9 km/h 96 % 0.3 mm 0 W/m2
04:05 10.1 °C 9.5 °C 1013.1 hPa NW 6.4 km/h 14.5 km/h 96 % 0.3 mm 0 W/m2
04:10 10.0 °C 9.4 °C 1013.1 hPa West 8.0 km/h 14.5 km/h 96 % 0.3 mm 0 W/m2
04:20 9.8 °C 9.2 °C 1013.1 hPa NW 3.2 km/h 16.1 km/h 96 % 0.3 mm 0 W/m2
04:25 9.7 °C 8.9 °C 1013.1 hPa NW 4.8 km/h 16.1 km/h 95 % 0.3 mm 0 W/m2
04:30 9.6 °C 8.8 °C 1013.1 hPa WNW 3.2 km/h 19.3 km/h 95 % 0.3 mm 0 W/m2
04:40 9.4 °C 8.5 °C 1013.1 hPa NW 9.7 km/h 17.7 km/h 94 % 0.0 mm 0 W/m2
04:45 9.4 °C 8.5 °C 1013.4 hPa NW 4.8 km/h 16.1 km/h 94 % 0.0 mm 0 W/m2
04:50 9.3 °C 8.3 °C 1013.1 hPa NW 6.4 km/h 16.1 km/h 93 % 0.0 mm 0 W/m2
04:55 9.3 °C 8.3 °C 1013.1 hPa NW 3.2 km/h 16.1 km/h 93 % 0.0 mm 0 W/m2
05:00 9.3 °C 8.2 °C 1013.4 hPa WNW 4.8 km/h 12.9 km/h 93 % 0.0 mm 0 W/m2
05:05 9.2 °C 8.1 °C 1013.4 hPa NW 6.4 km/h 12.9 km/h 93 % 0.0 mm 0 W/m2
05:10 9.3 °C 8.2 °C 1013.4 hPa NNW 9.7 km/h 16.1 km/h 93 % 0.0 mm 0 W/m2
05:15 9.2 °C 8.0 °C 1013.4 hPa WNW 9.7 km/h 16.1 km/h 92 % 0.0 mm 0 W/m2
05:20 9.2 °C 7.9 °C 1013.4 hPa WNW 6.4 km/h 14.5 km/h 92 % 0.0 mm 0 W/m2
05:30 9.1 °C 7.9 °C 1013.4 hPa NW 9.7 km/h 12.9 km/h 92 % 0.0 mm 0 W/m2
05:40 9.1 °C 7.9 °C 1013.8 hPa WNW 3.2 km/h 12.9 km/h 92 % 0.0 mm 0 W/m2
05:45 9.1 °C 7.8 °C 1013.8 hPa NNW 6.4 km/h 14.5 km/h 92 % 0.0 mm 0 W/m2
05:50 9.0 °C 7.9 °C 1013.4 hPa NW 6.4 km/h 14.5 km/h 93 % 0.0 mm 0 W/m2
05:55 8.9 °C 7.9 °C 1013.8 hPa WNW 4.8 km/h 9.7 km/h 93 % 0.0 mm 0 W/m2
06:00 8.9 °C 7.8 °C 1013.8 hPa NW 3.2 km/h 11.3 km/h 93 % 0.0 mm 0 W/m2
06:05 8.8 °C 7.8 °C 1013.8 hPa NW 4.8 km/h 11.3 km/h 93 % 0.0 mm 0 W/m2
06:10 8.9 °C 7.8 °C 1013.8 hPa NW 4.8 km/h 14.5 km/h 93 % 0.0 mm 0 W/m2
06:15 8.9 °C 7.8 °C 1013.8 hPa NW 6.4 km/h 14.5 km/h 93 % 0.0 mm 0 W/m2
06:20 8.8 °C 7.8 °C 1013.8 hPa WNW 8.0 km/h 12.9 km/h 93 % 0.0 mm 0 W/m2
06:25 8.7 °C 7.5 °C 1013.8 hPa NNW 4.8 km/h 14.5 km/h 92 % 0.0 mm 0 W/m2
06:30 8.7 °C 7.4 °C 1013.8 hPa NNW 9.7 km/h 14.5 km/h 92 % 0.0 mm 0 W/m2
06:35 8.6 °C 7.4 °C 1013.8 hPa NNW 3.2 km/h 12.9 km/h 92 % 0.0 mm 0 W/m2
06:40 8.5 °C 7.3 °C 1013.8 hPa NNW 3.2 km/h 12.9 km/h 92 % 0.0 mm 0 W/m2
06:45 8.6 °C 7.3 °C 1013.8 hPa WNW 6.4 km/h 14.5 km/h 92 % 0.0 mm 0 W/m2
06:50 8.5 °C 7.1 °C 1013.8 hPa NNW 14.5 km/h 16.1 km/h 91 % 0.0 mm 0 W/m2
06:55 8.4 °C 7.1 °C 1013.8 hPa NNW 12.9 km/h 16.1 km/h 91 % 0.0 mm 0 W/m2
07:00 8.4 °C 7.1 °C 1014.1 hPa NW 4.8 km/h 16.1 km/h 91 % 0.0 mm 0 W/m2
07:10 8.4 °C 7.0 °C 1014.1 hPa NNW 4.8 km/h 14.5 km/h 91 % 0.0 mm 0 W/m2
07:15 8.4 °C 7.0 °C 1014.1 hPa NNW 1.6 km/h 16.1 km/h 91 % 0.0 mm 0 W/m2
07:20 8.3 °C 6.9 °C 1014.1 hPa NNW 1.6 km/h 16.1 km/h 91 % 0.0 mm 0 W/m2
07:25 8.3 °C 6.9 °C 1014.1 hPa North 1.6 km/h 12.9 km/h 91 % 0.0 mm 5 W/m2
07:30 8.3 °C 6.9 °C 1014.1 hPa WNW 6.4 km/h 12.9 km/h 91 % 0.0 mm 7 W/m2
07:35 8.2 °C 6.8 °C 1014.1 hPa NNW 9.7 km/h 12.9 km/h 91 % 0.0 mm 9 W/m2
07:40 8.2 °C 6.8 °C 1014.4 hPa NW 4.8 km/h 14.5 km/h 91 % 0.0 mm 14 W/m2
07:45 8.2 °C 6.8 °C 1014.1 hPa North 8.0 km/h 14.5 km/h 91 % 0.0 mm 26 W/m2
07:50 8.3 °C 6.9 °C 1014.4 hPa NW 6.4 km/h 12.9 km/h 91 % 0.0 mm 30 W/m2
07:55 8.3 °C 6.9 °C 1014.4 hPa NNW 6.4 km/h 11.3 km/h 91 % 0.0 mm 33 W/m2
08:00 8.3 °C 6.9 °C 1014.4 hPa Calm   11.3 km/h 91 % 0.0 mm 33 W/m2
08:05 8.3 °C 6.9 °C 1014.4 hPa WNW 1.6 km/h 9.7 km/h 91 % 0.0 mm 35 W/m2
08:10 8.4 °C 7.0 °C 1014.8 hPa NW 4.8 km/h 9.7 km/h 91 % 0.0 mm 39 W/m2
08:15 8.4 °C 7.0 °C 1014.8 hPa NW 1.6 km/h 9.7 km/h 91 % 0.0 mm 37 W/m2
08:20 8.4 °C 7.2 °C 1014.8 hPa NNW 3.2 km/h 11.3 km/h 92 % 0.0 mm 40 W/m2
08:25 8.4 °C 7.1 °C 1014.8 hPa NW 4.8 km/h 12.9 km/h 91 % 0.0 mm 44 W/m2
08:30 8.5 °C 7.1 °C 1015.1 hPa NNW 3.2 km/h 14.5 km/h 91 % 0.0 mm 49 W/m2
08:35 8.6 °C 7.2 °C 1015.1 hPa NW 9.7 km/h 14.5 km/h 91 % 0.0 mm 54 W/m2
08:40 8.6 °C 7.0 °C 1015.1 hPa NNW 4.8 km/h 14.5 km/h 90 % 0.0 mm 62 W/m2
08:45 8.5 °C 6.8 °C 1015.1 hPa NW 3.2 km/h 14.5 km/h 89 % 0.0 mm 63 W/m2
08:55 8.6 °C 6.8 °C 1015.1 hPa NNW 4.8 km/h 17.7 km/h 89 % 0.0 mm 90 W/m2
09:00 8.7 °C 7.0 °C 1015.1 hPa NNW 1.6 km/h 11.3 km/h 89 % 0.0 mm 83 W/m2
09:05 8.7 °C 7.0 °C 1015.5 hPa NNW 6.4 km/h 11.3 km/h 89 % 0.0 mm 81 W/m2
09:10 8.7 °C 6.8 °C 1015.5 hPa NW 4.8 km/h 12.9 km/h 88 % 0.0 mm 97 W/m2
09:15 8.7 °C 6.7 °C 1015.5 hPa North 8.0 km/h 12.9 km/h 87 % 0.0 mm 113 W/m2
09:20 8.8 °C 6.8 °C 1015.5 hPa NNW 3.2 km/h 12.9 km/h 87 % 0.0 mm 123 W/m2
09:25 9.0 °C 7.1 °C 1015.5 hPa Calm   12.9 km/h 88 % 0.0 mm 128 W/m2
09:30 9.1 °C 7.0 °C 1015.5 hPa NW 1.6 km/h 12.9 km/h 87 % 0.0 mm 125 W/m2
09:35 9.1 °C 6.9 °C 1015.8 hPa NW 4.8 km/h 12.9 km/h 86 % 0.0 mm 135 W/m2
09:40 9.1 °C 6.7 °C 1015.8 hPa North 3.2 km/h 12.9 km/h 85 % 0.0 mm 134 W/m2
09:50 9.2 °C 6.9 °C 1015.8 hPa North 1.6 km/h 11.3 km/h 86 % 0.0 mm 139 W/m2
09:55 9.3 °C 7.1 °C 1015.8 hPa NW 3.2 km/h 11.3 km/h 86 % 0.0 mm 155 W/m2
10:00 9.4 °C 7.2 °C 1015.8 hPa NNW 4.8 km/h 9.7 km/h 86 % 0.0 mm 156 W/m2
10:05 9.4 °C 6.8 °C 1015.8 hPa NW 4.8 km/h 9.7 km/h 84 % 0.0 mm 162 W/m2
10:10 9.4 °C 6.9 °C 1015.8 hPa North 9.7 km/h 9.7 km/h 84 % 0.0 mm 171 W/m2
10:15 9.5 °C 6.6 °C 1015.8 hPa NW 1.6 km/h 9.7 km/h 82 % 0.0 mm 171 W/m2
10:20 9.5 °C 6.6 °C 1015.8 hPa NW 1.6 km/h 9.7 km/h 82 % 0.0 mm 178 W/m2
10:25 9.6 °C 6.6 °C 1015.8 hPa Calm   11.3 km/h 82 % 0.0 mm 178 W/m2
10:30 9.7 °C 7.0 °C 1015.8 hPa North 6.4 km/h 11.3 km/h 83 % 0.0 mm 197 W/m2
10:35 9.8 °C 6.7 °C 1016.1 hPa WNW 1.6 km/h 11.3 km/h 81 % 0.0 mm 204 W/m2
10:40 9.8 °C 6.7 °C 1016.1 hPa NW 3.2 km/h 12.9 km/h 81 % 0.0 mm 218 W/m2
10:45 10.0 °C 6.7 °C 1016.1 hPa NW 4.8 km/h 12.9 km/h 80 % 0.0 mm 262 W/m2
10:50 10.1 °C 6.6 °C 1016.1 hPa NNW 11.3 km/h 11.3 km/h 79 % 0.0 mm 290 W/m2
10:55 10.3 °C 6.8 °C 1016.1 hPa NNW 3.2 km/h 11.3 km/h 79 % 0.0 mm 388 W/m2
11:00 10.4 °C 6.6 °C 1016.5 hPa NW 1.6 km/h 14.5 km/h 77 % 0.0 mm 274 W/m2
11:05 10.4 °C 6.4 °C 1016.5 hPa NNW 9.7 km/h 14.5 km/h 76 % 0.0 mm 269 W/m2
11:10 10.5 °C 6.1 °C 1016.5 hPa NW 9.7 km/h 12.9 km/h 74 % 0.0 mm 281 W/m2
11:15 10.6 °C 6.1 °C 1016.5 hPa WNW 3.2 km/h 14.5 km/h 74 % 0.0 mm 292 W/m2
11:20 10.7 °C 6.4 °C 1016.5 hPa WNW 3.2 km/h 14.5 km/h 75 % 0.0 mm 315 W/m2
11:25 10.7 °C 6.2 °C 1016.5 hPa NW 1.6 km/h 14.5 km/h 74 % 0.0 mm 466 W/m2
11:30 11.1 °C 6.4 °C 1016.5 hPa NW 3.2 km/h 14.5 km/h 73 % 0.0 mm 323 W/m2
11:35 11.2 °C 6.5 °C 1016.5 hPa NNW 4.8 km/h 11.3 km/h 73 % 0.0 mm 345 W/m2
11:40 11.2 °C 6.2 °C 1016.5 hPa NW 4.8 km/h 16.1 km/h 71 % 0.0 mm 385 W/m2
11:45 11.1 °C 6.3 °C 1016.5 hPa NW 11.3 km/h 16.1 km/h 72 % 0.0 mm 362 W/m2
11:50 11.4 °C 6.5 °C 1016.5 hPa NW 11.3 km/h 16.1 km/h 72 % 0.0 mm 468 W/m2
11:55 11.9 °C 6.2 °C 1016.5 hPa WNW 8.0 km/h 19.3 km/h 68 % 0.0 mm 591 W/m2
12:00 12.2 °C 5.8 °C 1016.5 hPa North 11.3 km/h 19.3 km/h 65 % 0.0 mm 550 W/m2
12:05 12.2 °C 5.6 °C 1016.5 hPa WNW 4.8 km/h 16.1 km/h 64 % 0.0 mm 396 W/m2
12:15 11.0 °C 4.2 °C 1016.5 hPa NW 8.0 km/h 17.7 km/h 63 % 0.0 mm 374 W/m2
12:20 11.1 °C 5.8 °C 1016.5 hPa NW 3.2 km/h 16.1 km/h 70 % 0.0 mm 383 W/m2
12:25 11.0 °C 4.4 °C 1016.5 hPa NW 8.0 km/h 16.1 km/h 64 % 0.0 mm 547 W/m2
12:30 11.8 °C 5.2 °C 1016.5 hPa North 9.7 km/h 11.3 km/h 64 % 0.0 mm 659 W/m2
12:40 12.3 °C 4.7 °C 1016.5 hPa NW 3.2 km/h 14.5 km/h 60 % 0.0 mm 693 W/m2
12:45 12.5 °C 4.7 °C 1016.5 hPa West 12.9 km/h 14.5 km/h 59 % 0.0 mm 817 W/m2
12:50 12.6 °C 4.3 °C 1016.1 hPa West 6.4 km/h 14.5 km/h 57 % 0.0 mm 779 W/m2
12:55 12.2 °C 4.2 °C 1016.5 hPa NW 3.2 km/h 12.9 km/h 58 % 0.0 mm 643 W/m2
13:00 12.4 °C 5.1 °C 1016.5 hPa West 4.8 km/h 11.3 km/h 61 % 0.0 mm 635 W/m2
13:05 12.1 °C 4.8 °C 1016.5 hPa West 4.8 km/h 12.9 km/h 61 % 0.0 mm 642 W/m2
13:10 12.2 °C 5.1 °C 1016.5 hPa WNW 12.9 km/h 20.9 km/h 62 % 0.0 mm 633 W/m2
13:15 12.3 °C 5.2 °C 1016.1 hPa NW 11.3 km/h 20.9 km/h 62 % 0.0 mm 812 W/m2
13:20 12.5 °C 5.2 °C 1016.1 hPa West 19.3 km/h 19.3 km/h 61 % 0.0 mm 805 W/m2
13:25 12.6 °C 5.7 °C 1016.1 hPa WNW 14.5 km/h 19.3 km/h 63 % 0.0 mm 737 W/m2
13:30 12.7 °C 5.6 °C 1016.1 hPa West 6.4 km/h 20.9 km/h 62 % 0.0 mm 729 W/m2
13:35 12.8 °C 5.5 °C 1016.1 hPa West 14.5 km/h 20.9 km/h 61 % 0.0 mm 728 W/m2
13:40 12.6 °C 5.3 °C 1016.1 hPa WSW 9.7 km/h 20.9 km/h 61 % 0.0 mm 729 W/m2
13:45 12.6 °C 4.8 °C 1016.1 hPa WNW 8.0 km/h 20.9 km/h 59 % 0.0 mm 715 W/m2
13:50 12.6 °C 5.3 °C 1016.1 hPa West 8.0 km/h 19.3 km/h 61 % 0.0 mm 707 W/m2
14:00 12.9 °C 5.5 °C 1016.1 hPa West 19.3 km/h 24.1 km/h 61 % 0.0 mm 705 W/m2
14:05 12.2 °C 6.1 °C 1016.1 hPa West 8.0 km/h 24.1 km/h 66 % 0.0 mm 693 W/m2
14:10 12.3 °C 5.3 °C 1016.1 hPa SW 24.1 km/h 24.1 km/h 62 % 0.0 mm 691 W/m2
14:15 12.3 °C 5.4 °C 1016.1 hPa West 12.9 km/h 24.1 km/h 63 % 0.0 mm 686 W/m2
14:20 12.0 °C 5.2 °C 1016.1 hPa NW 11.3 km/h 24.1 km/h 63 % 0.0 mm 677 W/m2
14:25 12.6 °C 5.7 °C 1016.1 hPa WNW 6.4 km/h 24.1 km/h 63 % 0.0 mm 677 W/m2
14:30 12.8 °C 4.7 °C 1015.8 hPa West 11.3 km/h 20.9 km/h 58 % 0.0 mm 668 W/m2
14:40 12.4 °C 5.3 °C 1015.8 hPa West 6.4 km/h 19.3 km/h 62 % 0.0 mm 650 W/m2
14:50 12.2 °C 4.9 °C 1015.8 hPa West 22.5 km/h 27.4 km/h 61 % 0.0 mm 642 W/m2
14:55 11.8 °C 4.8 °C 1015.8 hPa West 14.5 km/h 27.4 km/h 62 % 0.0 mm 628 W/m2
15:00 11.9 °C 4.6 °C 1015.8 hPa NW 16.1 km/h 22.5 km/h 61 % 0.0 mm 624 W/m2
15:05 11.8 °C 4.7 °C 1015.8 hPa WNW 9.7 km/h 27.4 km/h 62 % 0.0 mm 622 W/m2
15:10 11.9 °C 4.8 °C 1015.8 hPa WSW 6.4 km/h 27.4 km/h 62 % 0.0 mm 613 W/m2
15:15 11.9 °C 5.3 °C 1015.8 hPa West 14.5 km/h 24.1 km/h 64 % 0.0 mm 603 W/m2
15:20 11.7 °C 4.7 °C 1015.5 hPa WNW 14.5 km/h 24.1 km/h 62 % 0.0 mm 513 W/m2
15:25 12.1 °C 5.2 °C 1015.5 hPa West 12.9 km/h 20.9 km/h 63 % 0.0 mm 541 W/m2
15:30 12.0 °C 5.2 °C 1015.5 hPa SSW 12.9 km/h 20.9 km/h 63 % 0.0 mm 522 W/m2
15:35 11.7 °C 4.9 °C 1015.5 hPa NW 17.7 km/h 22.5 km/h 63 % 0.0 mm 501 W/m2
15:40 11.6 °C 4.3 °C 1015.5 hPa WNW 14.5 km/h 22.5 km/h 61 % 0.0 mm 338 W/m2
15:45 11.2 °C 4.0 °C 1015.5 hPa West 6.4 km/h 20.9 km/h 61 % 0.0 mm 366 W/m2
15:50 11.1 °C 4.1 °C 1015.5 hPa WNW 1.6 km/h 22.5 km/h 62 % 0.0 mm 346 W/m2
15:55 11.2 °C 4.2 °C 1015.5 hPa WSW 6.4 km/h 22.5 km/h 62 % 0.0 mm 367 W/m2
16:00 11.2 °C 3.9 °C 1015.5 hPa WNW 11.3 km/h 19.3 km/h 61 % 0.0 mm 323 W/m2
16:05 11.1 °C 4.5 °C 1015.5 hPa WSW 9.7 km/h 19.3 km/h 64 % 0.0 mm 308 W/m2
16:10 10.8 °C 3.6 °C 1015.1 hPa WNW 9.7 km/h 19.3 km/h 61 % 0.0 mm 244 W/m2
16:15 10.8 °C 4.0 °C 1015.1 hPa NW 4.8 km/h 19.3 km/h 63 % 0.0 mm 230 W/m2
16:20 10.7 °C 4.1 °C 1015.1 hPa WSW 14.5 km/h 20.9 km/h 64 % 0.0 mm 264 W/m2
16:25 10.6 °C 3.9 °C 1015.1 hPa WNW 12.9 km/h 20.9 km/h 63 % 0.0 mm 265 W/m2
16:30 10.6 °C 3.9 °C 1015.1 hPa West 6.4 km/h 19.3 km/h 63 % 0.0 mm 202 W/m2
16:35 10.6 °C 3.8 °C 1015.1 hPa WNW 8.0 km/h 17.7 km/h 63 % 0.0 mm 162 W/m2
16:40 10.3 °C 4.0 °C 1015.1 hPa West 12.9 km/h 17.7 km/h 65 % 0.0 mm 160 W/m2
16:45 10.2 °C 3.9 °C 1015.1 hPa West 8.0 km/h 19.3 km/h 65 % 0.0 mm 151 W/m2
16:50 10.2 °C 4.1 °C 1015.1 hPa West 6.4 km/h 19.3 km/h 66 % 0.0 mm 162 W/m2
16:55 10.3 °C 4.2 °C 1015.1 hPa WNW 6.4 km/h 16.1 km/h 66 % 0.0 mm 178 W/m2
17:00 10.3 °C 4.3 °C 1015.5 hPa WNW 3.2 km/h 16.1 km/h 66 % 0.0 mm 202 W/m2
17:05 10.4 °C 4.6 °C 1015.5 hPa WSW 3.2 km/h 16.1 km/h 67 % 0.0 mm 165 W/m2
17:10 10.4 °C 4.3 °C 1015.5 hPa WNW 3.2 km/h 17.7 km/h 66 % 0.0 mm 220 W/m2
17:15 10.4 °C 4.4 °C 1015.5 hPa SW 4.8 km/h 17.7 km/h 66 % 0.0 mm 181 W/m2
17:20 10.5 °C 4.4 °C 1015.5 hPa NW 12.9 km/h 22.5 km/h 66 % 0.0 mm 163 W/m2
17:25 10.3 °C 4.0 °C 1015.5 hPa SW 6.4 km/h 22.5 km/h 65 % 0.0 mm 128 W/m2
17:35 10.0 °C 4.1 °C 1015.1 hPa WSW 12.9 km/h 19.3 km/h 67 % 0.0 mm 104 W/m2
17:40 9.9 °C 4.1 °C 1015.1 hPa WSW 3.2 km/h 17.7 km/h 67 % 0.0 mm 109 W/m2
17:50 10.0 °C 4.1 °C 1015.1 hPa West 11.3 km/h 14.5 km/h 67 % 0.0 mm 104 W/m2
17:55 9.9 °C 4.1 °C 1015.1 hPa WNW 11.3 km/h 17.7 km/h 67 % 0.0 mm 21 W/m2
18:00 9.9 °C 4.5 °C 1015.1 hPa SW 12.9 km/h 17.7 km/h 69 % 0.0 mm 114 W/m2
18:05 9.8 °C 4.2 °C 1015.1 hPa West 3.2 km/h 16.1 km/h 68 % 0.0 mm 102 W/m2
18:10 9.8 °C 4.4 °C 1014.8 hPa NW 6.4 km/h 16.1 km/h 69 % 0.0 mm 95 W/m2
18:15 9.8 °C 4.2 °C 1014.8 hPa West 8.0 km/h 17.7 km/h 68 % 0.0 mm 98 W/m2
18:20 9.8 °C 4.1 °C 1014.8 hPa West 4.8 km/h 17.7 km/h 68 % 0.0 mm 123 W/m2
18:25 9.8 °C 4.4 °C 1014.8 hPa West 4.8 km/h 14.5 km/h 69 % 0.0 mm 107 W/m2
18:30 9.8 °C 4.4 °C 1014.8 hPa WSW 8.0 km/h 14.5 km/h 69 % 0.0 mm 86 W/m2
18:40 9.6 °C 4.4 °C 1014.8 hPa WSW 8.0 km/h 16.1 km/h 70 % 0.0 mm 40 W/m2
18:45 9.5 °C 4.5 °C 1014.8 hPa WSW 3.2 km/h 12.9 km/h 71 % 0.0 mm 70 W/m2
18:50 9.5 °C 4.7 °C 1014.4 hPa WSW 9.7 km/h 12.9 km/h 72 % 0.0 mm 32 W/m2
18:55 9.4 °C 4.4 °C 1014.4 hPa SW 6.4 km/h 14.5 km/h 71 % 0.0 mm 21 W/m2
19:00 9.3 °C 4.5 °C 1014.4 hPa NW 4.8 km/h 19.3 km/h 72 % 0.0 mm 14 W/m2
19:05 9.1 °C 4.3 °C 1014.4 hPa Calm   19.3 km/h 72 % 0.0 mm 12 W/m2
19:10 8.9 °C 4.2 °C 1014.4 hPa WSW 9.7 km/h 19.3 km/h 72 % 0.0 mm 11 W/m2
19:15 8.9 °C 4.3 °C 1014.4 hPa WSW 3.2 km/h 19.3 km/h 73 % 0.0 mm 7 W/m2
19:20 8.8 °C 4.0 °C 1014.4 hPa West 3.2 km/h 12.9 km/h 72 % 0.0 mm 5 W/m2
19:25 8.8 °C 4.3 °C 1014.4 hPa WSW 6.4 km/h 17.7 km/h 73 % 0.0 mm 0 W/m2
19:30 8.8 °C 4.3 °C 1014.4 hPa WSW 3.2 km/h 17.7 km/h 73 % 0.0 mm 0 W/m2
19:35 8.7 °C 4.1 °C 1014.4 hPa West 6.4 km/h 16.1 km/h 73 % 0.0 mm 0 W/m2
19:40 8.7 °C 4.3 °C 1014.8 hPa WSW 3.2 km/h 16.1 km/h 74 % 0.0 mm 0 W/m2
19:50 8.8 °C 4.3 °C 1014.4 hPa SW 4.8 km/h 17.7 km/h 73 % 0.0 mm 0 W/m2
19:55 8.8 °C 4.4 °C 1014.4 hPa WSW 11.3 km/h 22.5 km/h 74 % 0.0 mm 0 W/m2
20:00 8.9 °C 4.4 °C 1014.4 hPa WSW 9.7 km/h 22.5 km/h 73 % 0.0 mm 0 W/m2
20:05 8.9 °C 4.4 °C 1014.4 hPa SW 6.4 km/h 16.1 km/h 73 % 0.0 mm 0 W/m2
20:15 8.8 °C 4.3 °C 1014.4 hPa WSW 6.4 km/h 14.5 km/h 73 % 0.0 mm 0 W/m2
20:20 8.8 °C 4.4 °C 1014.1 hPa West 3.2 km/h 14.5 km/h 74 % 0.0 mm 0 W/m2
20:25 8.7 °C 4.3 °C 1014.1 hPa WSW 4.8 km/h 11.3 km/h 74 % 0.0 mm 0 W/m2
20:30 8.7 °C 4.3 °C 1014.1 hPa SW 1.6 km/h 17.7 km/h 74 % 0.0 mm 0 W/m2
20:40 8.8 °C 4.4 °C 1014.1 hPa SSW 4.8 km/h 12.9 km/h 74 % 0.0 mm 0 W/m2
20:45 8.8 °C 4.6 °C 1014.1 hPa SW 8.0 km/h 16.1 km/h 75 % 0.0 mm 0 W/m2
20:50 8.9 °C 4.7 °C 1014.1 hPa South 8.0 km/h 16.1 km/h 75 % 0.0 mm 0 W/m2
20:55 8.8 °C 4.6 °C 1014.1 hPa SW 6.4 km/h 14.5 km/h 75 % 0.0 mm 0 W/m2
21:00 8.8 °C 4.6 °C 1014.1 hPa SSW 3.2 km/h 16.1 km/h 75 % 0.0 mm 0 W/m2
21:10 8.8 °C 4.8 °C 1014.1 hPa South 6.4 km/h 16.1 km/h 76 % 0.0 mm 0 W/m2
21:15 8.9 °C 4.9 °C 1014.1 hPa SW 9.7 km/h 16.1 km/h 76 % 0.0 mm 0 W/m2
21:20 8.9 °C 4.9 °C 1014.1 hPa SSW 11.3 km/h 14.5 km/h 76 % 0.0 mm 0 W/m2
21:25 8.9 °C 5.1 °C 1014.1 hPa SSW 6.4 km/h 16.1 km/h 77 % 0.0 mm 0 W/m2
21:30 8.7 °C 4.9 °C 1014.1 hPa South 8.0 km/h 19.3 km/h 77 % 0.0 mm 0 W/m2
21:40 8.8 °C 5.2 °C 1013.8 hPa South 6.4 km/h 20.9 km/h 78 % 0.0 mm 0 W/m2
21:45 8.9 °C 5.3 °C 1013.8 hPa SSW 4.8 km/h 22.5 km/h 78 % 0.0 mm 0 W/m2
21:50 8.9 °C 5.5 °C 1013.8 hPa SSW 12.9 km/h 22.5 km/h 79 % 0.0 mm 0 W/m2
21:55 9.1 °C 5.6 °C 1013.8 hPa SSW 8.0 km/h 19.3 km/h 79 % 0.0 mm 0 W/m2
22:00 9.1 °C 5.6 °C 1013.4 hPa South 6.4 km/h 22.5 km/h 79 % 0.0 mm 0 W/m2
22:05 8.9 °C 5.4 °C 1013.4 hPa SSW 8.0 km/h 22.5 km/h 79 % 0.0 mm 0 W/m2
22:10 8.8 °C 5.2 °C 1013.4 hPa WSW 3.2 km/h 22.5 km/h 78 % 0.0 mm 0 W/m2
22:15 8.7 °C 4.7 °C 1013.4 hPa SW 11.3 km/h 17.7 km/h 76 % 0.0 mm 0 W/m2
22:20 8.7 °C 4.5 °C 1013.4 hPa SSW 17.7 km/h 17.7 km/h 75 % 0.0 mm 0 W/m2
22:25 8.7 °C 4.7 °C 1013.4 hPa WSW 8.0 km/h 20.9 km/h 76 % 0.0 mm 0 W/m2
22:30 8.7 °C 4.9 °C 1013.1 hPa SSW 8.0 km/h 20.9 km/h 77 % 0.0 mm 0 W/m2
22:35 8.7 °C 4.9 °C 1013.1 hPa SW 12.9 km/h 19.3 km/h 77 % 0.0 mm 0 W/m2
22:40 8.7 °C 5.0 °C 1013.1 hPa SSW 9.7 km/h 24.1 km/h 78 % 0.0 mm 0 W/m2
22:45 8.5 °C 4.9 °C 1013.1 hPa South 4.8 km/h 24.1 km/h 78 % 0.0 mm 0 W/m2
22:50 8.3 °C 4.8 °C 1012.8 hPa SSW 11.3 km/h 19.3 km/h 79 % 0.0 mm 0 W/m2
22:55 8.1 °C 4.6 °C 1012.8 hPa South 9.7 km/h 14.5 km/h 79 % 0.0 mm 0 W/m2
23:00 7.9 °C 4.7 °C 1012.8 hPa South 4.8 km/h 12.9 km/h 80 % 0.0 mm 0 W/m2
23:10 7.9 °C 5.0 °C 1012.4 hPa South 8.0 km/h 12.9 km/h 82 % 0.0 mm 0 W/m2
23:15 7.8 °C 5.1 °C 1012.4 hPa South 6.4 km/h 12.9 km/h 83 % 0.0 mm 0 W/m2
23:20 7.9 °C 5.2 °C 1012.4 hPa SSE 8.0 km/h 12.9 km/h 83 % 0.0 mm 0 W/m2
23:25 7.9 °C 5.2 °C 1012.1 hPa South 8.0 km/h 11.3 km/h 83 % 0.0 mm 0 W/m2
23:30 7.9 °C 5.2 °C 1012.1 hPa South 14.5 km/h 14.5 km/h 83 % 0.0 mm 0 W/m2
23:35 8.0 °C 5.1 °C 1012.1 hPa SSW 14.5 km/h 20.9 km/h 82 % 0.0 mm 0 W/m2
23:40 8.1 °C 5.2 °C 1012.1 hPa South 12.9 km/h 20.9 km/h 82 % 0.0 mm 0 W/m2
23:45 8.0 °C 5.1 °C 1012.1 hPa SSW 9.7 km/h 17.7 km/h 82 % 0.0 mm 0 W/m2
23:50 8.0 °C 5.1 °C 1011.7 hPa South 6.4 km/h 17.7 km/h 82 % 0.0 mm 0 W/m2
23:55 7.9 °C 4.8 °C 1011.7 hPa South 11.3 km/h 17.7 km/h 81 % 0.0 mm 0 W/m2
Avec l'autorisation de Weather Underground - 1.5 mb